sensor_id;sensor_type;location;lat;lon;timestamp;P1;durP1;ratioP1;P2;durP2;ratioP2
73170;SDS011;61381;50.118;19.962;2023-09-30T00:04:05;31.20;;;14.20;;
73170;SDS011;61381;50.118;19.962;2023-09-30T00:09:06;30.45;;;13.30;;
73170;SDS011;61381;50.118;19.962;2023-09-30T00:14:07;28.92;;;13.20;;
73170;SDS011;61381;50.118;19.962;2023-09-30T00:19:09;23.98;;;12.55;;
73170;SDS011;61381;50.118;19.962;2023-09-30T00:24:10;24.20;;;11.57;;
73170;SDS011;61381;50.118;19.962;2023-09-30T00:29:11;22.10;;;11.98;;
73170;SDS011;61381;50.118;19.962;2023-09-30T00:34:13;21.08;;;11.38;;
73170;SDS011;61381;50.118;19.962;2023-09-30T00:39:14;24.92;;;12.00;;
73170;SDS011;61381;50.118;19.962;2023-09-30T00:44:15;22.77;;;11.93;;
73170;SDS011;61381;50.118;19.962;2023-09-30T00:49:17;22.30;;;11.70;;
73170;SDS011;61381;50.118;19.962;2023-09-30T00:54:18;21.58;;;11.32;;
73170;SDS011;61381;50.118;19.962;2023-09-30T00:59:21;25.85;;;13.07;;
73170;SDS011;61381;50.118;19.962;2023-09-30T01:04:23;25.45;;;12.55;;
73170;SDS011;61381;50.118;19.962;2023-09-30T01:09:26;26.15;;;12.48;;
73170;SDS011;61381;50.118;19.962;2023-09-30T01:14:28;26.63;;;12.38;;
73170;SDS011;61381;50.118;19.962;2023-09-30T01:19:32;21.35;;;10.95;;
73170;SDS011;61381;50.118;19.962;2023-09-30T01:24:38;21.33;;;11.02;;
73170;SDS011;61381;50.118;19.962;2023-09-30T01:29:39;22.23;;;11.75;;
73170;SDS011;61381;50.118;19.962;2023-09-30T01:34:40;24.58;;;11.82;;
73170;SDS011;61381;50.118;19.962;2023-09-30T01:39:42;23.08;;;11.52;;
73170;SDS011;61381;50.118;19.962;2023-09-30T01:44:43;20.75;;;11.68;;
73170;SDS011;61381;50.118;19.962;2023-09-30T01:49:44;23.83;;;10.90;;
73170;SDS011;61381;50.118;19.962;2023-09-30T01:54:46;25.08;;;12.43;;
73170;SDS011;61381;50.118;19.962;2023-09-30T01:59:47;23.55;;;12.00;;
73170;SDS011;61381;50.118;19.962;2023-09-30T02:04:48;24.52;;;12.48;;
73170;SDS011;61381;50.118;19.962;2023-09-30T02:09:50;19.60;;;10.02;;
73170;SDS011;61381;50.118;19.962;2023-09-30T02:14:51;23.23;;;10.70;;
73170;SDS011;61381;50.118;19.962;2023-09-30T02:19:52;21.73;;;10.98;;
73170;SDS011;61381;50.118;19.962;2023-09-30T02:24:54;22.48;;;11.95;;
73170;SDS011;61381;50.118;19.962;2023-09-30T02:29:55;28.13;;;10.73;;
73170;SDS011;61381;50.118;19.962;2023-09-30T02:34:56;19.83;;;10.15;;
73170;SDS011;61381;50.118;19.962;2023-09-30T02:39:58;21.88;;;10.07;;
73170;SDS011;61381;50.118;19.962;2023-09-30T02:44:59;18.73;;;9.73;;
73170;SDS011;61381;50.118;19.962;2023-09-30T02:50:00;19.85;;;10.15;;
73170;SDS011;61381;50.118;19.962;2023-09-30T02:55:03;20.35;;;10.52;;
73170;SDS011;61381;50.118;19.962;2023-09-30T03:00:05;19.10;;;10.07;;
73170;SDS011;61381;50.118;19.962;2023-09-30T03:05:07;18.08;;;10.07;;
73170;SDS011;61381;50.118;19.962;2023-09-30T03:10:10;18.50;;;10.07;;
73170;SDS011;61381;50.118;19.962;2023-09-30T03:15:11;18.35;;;10.27;;
73170;SDS011;61381;50.118;19.962;2023-09-30T03:20:12;21.02;;;10.32;;
73170;SDS011;61381;50.118;19.962;2023-09-30T03:25:15;19.67;;;10.07;;
73170;SDS011;61381;50.118;19.962;2023-09-30T03:30:17;23.23;;;10.93;;
73170;SDS011;61381;50.118;19.962;2023-09-30T03:35:18;20.67;;;10.73;;
73170;SDS011;61381;50.118;19.962;2023-09-30T03:40:20;17.98;;;9.88;;
73170;SDS011;61381;50.118;19.962;2023-09-30T03:45:21;18.20;;;10.02;;
73170;SDS011;61381;50.118;19.962;2023-09-30T03:50:22;18.40;;;10.43;;
73170;SDS011;61381;50.118;19.962;2023-09-30T03:55:24;17.95;;;9.32;;
73170;SDS011;61381;50.118;19.962;2023-09-30T04:00:25;17.70;;;10.15;;
73170;SDS011;61381;50.118;19.962;2023-09-30T04:05:26;20.52;;;10.20;;
73170;SDS011;61381;50.118;19.962;2023-09-30T04:10:28;22.60;;;9.40;;
73170;SDS011;61381;50.118;19.962;2023-09-30T04:15:29;19.40;;;10.23;;
73170;SDS011;61381;50.118;19.962;2023-09-30T04:20:30;19.13;;;9.95;;
73170;SDS011;61381;50.118;19.962;2023-09-30T04:25:32;19.58;;;9.80;;
73170;SDS011;61381;50.118;19.962;2023-09-30T04:30:33;16.90;;;9.70;;
73170;SDS011;61381;50.118;19.962;2023-09-30T04:35:34;17.42;;;9.65;;
73170;SDS011;61381;50.118;19.962;2023-09-30T04:40:37;18.05;;;9.77;;
73170;SDS011;61381;50.118;19.962;2023-09-30T04:45:38;17.77;;;9.10;;
73170;SDS011;61381;50.118;19.962;2023-09-30T04:50:39;19.73;;;9.63;;
73170;SDS011;61381;50.118;19.962;2023-09-30T04:55:41;18.60;;;9.45;;
73170;SDS011;61381;50.118;19.962;2023-09-30T05:00:42;17.42;;;9.82;;
73170;SDS011;61381;50.118;19.962;2023-09-30T05:05:43;16.40;;;9.60;;
73170;SDS011;61381;50.118;19.962;2023-09-30T05:10:45;16.70;;;9.50;;
73170;SDS011;61381;50.118;19.962;2023-09-30T05:15:46;15.98;;;9.35;;
73170;SDS011;61381;50.118;19.962;2023-09-30T05:20:47;18.20;;;8.80;;
73170;SDS011;61381;50.118;19.962;2023-09-30T05:25:49;15.27;;;8.80;;
73170;SDS011;61381;50.118;19.962;2023-09-30T05:30:50;15.60;;;9.23;;
73170;SDS011;61381;50.118;19.962;2023-09-30T05:35:51;15.70;;;9.15;;
73170;SDS011;61381;50.118;19.962;2023-09-30T05:40:54;15.07;;;8.48;;
73170;SDS011;61381;50.118;19.962;2023-09-30T05:45:55;14.77;;;8.23;;
73170;SDS011;61381;50.118;19.962;2023-09-30T05:50:56;17.77;;;8.77;;
73170;SDS011;61381;50.118;19.962;2023-09-30T05:55:58;17.13;;;9.15;;
73170;SDS011;61381;50.118;19.962;2023-09-30T06:00:59;17.20;;;8.80;;
73170;SDS011;61381;50.118;19.962;2023-09-30T06:06:00;15.98;;;7.93;;
73170;SDS011;61381;50.118;19.962;2023-09-30T06:11:02;15.45;;;8.88;;
73170;SDS011;61381;50.118;19.962;2023-09-30T06:16:03;16.10;;;8.90;;
73170;SDS011;61381;50.118;19.962;2023-09-30T06:21:04;16.75;;;8.23;;
73170;SDS011;61381;50.118;19.962;2023-09-30T06:26:07;14.93;;;8.23;;
73170;SDS011;61381;50.118;19.962;2023-09-30T06:31:08;15.05;;;8.70;;
73170;SDS011;61381;50.118;19.962;2023-09-30T06:36:09;13.15;;;8.68;;
73170;SDS011;61381;50.118;19.962;2023-09-30T06:41:16;16.83;;;8.73;;
73170;SDS011;61381;50.118;19.962;2023-09-30T06:46:17;16.00;;;9.40;;
73170;SDS011;61381;50.118;19.962;2023-09-30T06:51:18;15.07;;;8.98;;
73170;SDS011;61381;50.118;19.962;2023-09-30T06:56:20;15.63;;;8.48;;
73170;SDS011;61381;50.118;19.962;2023-09-30T07:01:21;10.68;;;6.32;;
73170;SDS011;61381;50.118;19.962;2023-09-30T07:06:22;14.77;;;9.07;;
73170;SDS011;61381;50.118;19.962;2023-09-30T07:11:28;13.80;;;9.13;;
73170;SDS011;61381;50.118;19.962;2023-09-30T07:16:29;14.27;;;9.82;;
73170;SDS011;61381;50.118;19.962;2023-09-30T07:21:30;16.27;;;9.68;;
73170;SDS011;61381;50.118;19.962;2023-09-30T07:26:32;20.23;;;9.73;;
73170;SDS011;61381;50.118;19.962;2023-09-30T07:31:34;16.50;;;9.35;;
73170;SDS011;61381;50.118;19.962;2023-09-30T07:36:35;17.05;;;9.45;;
73170;SDS011;61381;50.118;19.962;2023-09-30T07:41:38;13.02;;;8.43;;
73170;SDS011;61381;50.118;19.962;2023-09-30T07:46:38;15.45;;;8.95;;
73170;SDS011;61381;50.118;19.962;2023-09-30T07:51:39;15.05;;;9.82;;
73170;SDS011;61381;50.118;19.962;2023-09-30T07:56:42;17.58;;;10.20;;
73170;SDS011;61381;50.118;19.962;2023-09-30T08:01:42;16.27;;;10.02;;
73170;SDS011;61381;50.118;19.962;2023-09-30T08:06:43;18.73;;;9.50;;
73170;SDS011;61381;50.118;19.962;2023-09-30T08:11:46;19.75;;;10.35;;
73170;SDS011;61381;50.118;19.962;2023-09-30T08:16:47;13.43;;;8.02;;
73170;SDS011;61381;50.118;19.962;2023-09-30T08:21:47;16.95;;;10.13;;
73170;SDS011;61381;50.118;19.962;2023-09-30T08:26:50;16.67;;;9.60;;
73170;SDS011;61381;50.118;19.962;2023-09-30T08:31:50;18.15;;;10.98;;
73170;SDS011;61381;50.118;19.962;2023-09-30T08:36:52;18.25;;;10.60;;
73170;SDS011;61381;50.118;19.962;2023-09-30T08:41:54;18.42;;;10.50;;
73170;SDS011;61381;50.118;19.962;2023-09-30T08:46:57;18.02;;;10.77;;
73170;SDS011;61381;50.118;19.962;2023-09-30T08:51:58;18.83;;;10.57;;
73170;SDS011;61381;50.118;19.962;2023-09-30T08:57:03;17.75;;;11.52;;
73170;SDS011;61381;50.118;19.962;2023-09-30T09:02:05;18.13;;;10.38;;
73170;SDS011;61381;50.118;19.962;2023-09-30T09:07:10;16.17;;;10.02;;
73170;SDS011;61381;50.118;19.962;2023-09-30T09:12:20;20.35;;;12.07;;
73170;SDS011;61381;50.118;19.962;2023-09-30T09:17:20;17.25;;;11.20;;
73170;SDS011;61381;50.118;19.962;2023-09-30T09:22:21;19.67;;;10.90;;
73170;SDS011;61381;50.118;19.962;2023-09-30T09:27:24;18.42;;;11.23;;
73170;SDS011;61381;50.118;19.962;2023-09-30T09:32:24;47.58;;;23.98;;
73170;SDS011;61381;50.118;19.962;2023-09-30T09:37:25;37.88;;;20.45;;
73170;SDS011;61381;50.118;19.962;2023-09-30T09:42:28;27.25;;;15.00;;
73170;SDS011;61381;50.118;19.962;2023-09-30T09:47:31;22.48;;;12.95;;
73170;SDS011;61381;50.118;19.962;2023-09-30T09:52:33;21.30;;;12.63;;
73170;SDS011;61381;50.118;19.962;2023-09-30T09:57:36;22.27;;;11.57;;
73170;SDS011;61381;50.118;19.962;2023-09-30T10:02:38;20.80;;;12.90;;
73170;SDS011;61381;50.118;19.962;2023-09-30T10:07:42;23.90;;;13.52;;
73170;SDS011;61381;50.118;19.962;2023-09-30T10:12:49;26.33;;;13.52;;
73170;SDS011;61381;50.118;19.962;2023-09-30T10:17:56;24.48;;;13.70;;
73170;SDS011;61381;50.118;19.962;2023-09-30T10:28:35;23.95;;;14.35;;
73170;SDS011;61381;50.118;19.962;2023-09-30T10:39:19;27.50;;;15.68;;
73170;SDS011;61381;50.118;19.962;2023-09-30T10:44:58;25.92;;;12.70;;
73170;SDS011;61381;50.118;19.962;2023-09-30T10:49:58;28.08;;;15.98;;
73170;SDS011;61381;50.118;19.962;2023-09-30T10:55:03;27.33;;;14.95;;
73170;SDS011;61381;50.118;19.962;2023-09-30T11:00:09;27.73;;;15.50;;
73170;SDS011;61381;50.118;19.962;2023-09-30T11:05:11;29.88;;;15.68;;
73170;SDS011;61381;50.118;19.962;2023-09-30T11:10:14;30.20;;;15.60;;
73170;SDS011;61381;50.118;19.962;2023-09-30T11:15:18;25.00;;;14.40;;
73170;SDS011;61381;50.118;19.962;2023-09-30T11:20:18;27.73;;;15.98;;
73170;SDS011;61381;50.118;19.962;2023-09-30T11:25:19;26.98;;;15.20;;
73170;SDS011;61381;50.118;19.962;2023-09-30T11:30:22;30.38;;;14.60;;
73170;SDS011;61381;50.118;19.962;2023-09-30T11:35:23;27.33;;;15.63;;
73170;SDS011;61381;50.118;19.962;2023-09-30T11:40:24;27.55;;;15.30;;
73170;SDS011;61381;50.118;19.962;2023-09-30T11:45:26;26.15;;;14.65;;
73170;SDS011;61381;50.118;19.962;2023-09-30T11:55:46;22.95;;;12.23;;
73170;SDS011;61381;50.118;19.962;2023-09-30T12:00:49;19.42;;;11.27;;
73170;SDS011;61381;50.118;19.962;2023-09-30T12:05:49;18.95;;;11.63;;
73170;SDS011;61381;50.118;19.962;2023-09-30T12:10:50;19.60;;;11.68;;
73170;SDS011;61381;50.118;19.962;2023-09-30T12:15:52;16.42;;;9.35;;
73170;SDS011;61381;50.118;19.962;2023-09-30T12:20:53;15.48;;;8.77;;
73170;SDS011;61381;50.118;19.962;2023-09-30T12:25:54;14.38;;;8.55;;
73170;SDS011;61381;50.118;19.962;2023-09-30T12:30:57;11.77;;;7.35;;
73170;SDS011;61381;50.118;19.962;2023-09-30T12:35:58;13.85;;;8.23;;
73170;SDS011;61381;50.118;19.962;2023-09-30T12:40:59;13.60;;;8.75;;
73170;SDS011;61381;50.118;19.962;2023-09-30T12:46:02;10.23;;;7.13;;
73170;SDS011;61381;50.118;19.962;2023-09-30T12:51:02;11.18;;;7.35;;
73170;SDS011;61381;50.118;19.962;2023-09-30T12:56:03;11.75;;;7.60;;
73170;SDS011;61381;50.118;19.962;2023-09-30T13:01:06;11.77;;;8.20;;
73170;SDS011;61381;50.118;19.962;2023-09-30T13:06:06;12.82;;;8.10;;
73170;SDS011;61381;50.118;19.962;2023-09-30T13:11:07;13.05;;;7.68;;
73170;SDS011;61381;50.118;19.962;2023-09-30T13:16:10;13.40;;;8.13;;
73170;SDS011;61381;50.118;19.962;2023-09-30T13:21:12;13.10;;;8.75;;
73170;SDS011;61381;50.118;19.962;2023-09-30T13:26:12;13.55;;;8.32;;
73170;SDS011;61381;50.118;19.962;2023-09-30T13:31:15;13.30;;;8.38;;
73170;SDS011;61381;50.118;19.962;2023-09-30T13:36:15;14.52;;;8.73;;
73170;SDS011;61381;50.118;19.962;2023-09-30T13:41:16;14.63;;;8.20;;
73170;SDS011;61381;50.118;19.962;2023-09-30T13:46:18;13.90;;;8.13;;
73170;SDS011;61381;50.118;19.962;2023-09-30T13:51:19;15.90;;;7.40;;
73170;SDS011;61381;50.118;19.962;2023-09-30T13:56:20;8.25;;;4.75;;
73170;SDS011;61381;50.118;19.962;2023-09-30T14:01:22;7.80;;;4.63;;
73170;SDS011;61381;50.118;19.962;2023-09-30T14:06:24;12.00;;;5.25;;
73170;SDS011;61381;50.118;19.962;2023-09-30T14:11:25;10.43;;;5.18;;
73170;SDS011;61381;50.118;19.962;2023-09-30T14:16:27;8.95;;;4.57;;
73170;SDS011;61381;50.118;19.962;2023-09-30T14:21:28;10.13;;;5.82;;
73170;SDS011;61381;50.118;19.962;2023-09-30T14:26:29;10.95;;;4.43;;
73170;SDS011;61381;50.118;19.962;2023-09-30T14:31:31;12.38;;;5.90;;
73170;SDS011;61381;50.118;19.962;2023-09-30T14:36:32;13.82;;;5.68;;
73170;SDS011;61381;50.118;19.962;2023-09-30T14:41:33;7.35;;;4.03;;
73170;SDS011;61381;50.118;19.962;2023-09-30T14:46:35;11.98;;;5.75;;
73170;SDS011;61381;50.118;19.962;2023-09-30T14:51:36;11.50;;;5.10;;
73170;SDS011;61381;50.118;19.962;2023-09-30T14:56:37;6.75;;;4.38;;
73170;SDS011;61381;50.118;19.962;2023-09-30T15:01:39;12.73;;;5.03;;
73170;SDS011;61381;50.118;19.962;2023-09-30T15:06:40;10.13;;;4.45;;
73170;SDS011;61381;50.118;19.962;2023-09-30T15:11:41;7.78;;;4.00;;
73170;SDS011;61381;50.118;19.962;2023-09-30T15:16:43;8.20;;;3.80;;
73170;SDS011;61381;50.118;19.962;2023-09-30T15:21:44;6.80;;;3.58;;
73170;SDS011;61381;50.118;19.962;2023-09-30T15:26:45;6.15;;;3.58;;
73170;SDS011;61381;50.118;19.962;2023-09-30T15:31:47;7.43;;;3.85;;
73170;SDS011;61381;50.118;19.962;2023-09-30T15:36:48;10.10;;;4.03;;
73170;SDS011;61381;50.118;19.962;2023-09-30T15:41:49;9.55;;;4.93;;
73170;SDS011;61381;50.118;19.962;2023-09-30T15:46:51;7.82;;;4.18;;
73170;SDS011;61381;50.118;19.962;2023-09-30T15:51:52;11.63;;;5.05;;
73170;SDS011;61381;50.118;19.962;2023-09-30T15:56:53;8.57;;;3.92;;
73170;SDS011;61381;50.118;19.962;2023-09-30T16:01:55;14.90;;;5.90;;
73170;SDS011;61381;50.118;19.962;2023-09-30T16:06:56;9.43;;;4.82;;
73170;SDS011;61381;50.118;19.962;2023-09-30T16:11:57;12.60;;;5.97;;
73170;SDS011;61381;50.118;19.962;2023-09-30T16:17:01;18.13;;;7.35;;
73170;SDS011;61381;50.118;19.962;2023-09-30T16:22:02;15.80;;;7.45;;
73170;SDS011;61381;50.118;19.962;2023-09-30T16:27:03;19.77;;;8.55;;
73170;SDS011;61381;50.118;19.962;2023-09-30T16:32:05;18.27;;;7.85;;
73170;SDS011;61381;50.118;19.962;2023-09-30T16:37:06;24.02;;;8.98;;
73170;SDS011;61381;50.118;19.962;2023-09-30T16:42:08;18.33;;;9.02;;
73170;SDS011;61381;50.118;19.962;2023-09-30T16:47:10;21.77;;;9.20;;
73170;SDS011;61381;50.118;19.962;2023-09-30T16:52:11;22.02;;;9.35;;
73170;SDS011;61381;50.118;19.962;2023-09-30T16:57:12;24.17;;;10.13;;
73170;SDS011;61381;50.118;19.962;2023-09-30T17:02:15;20.85;;;9.48;;
73170;SDS011;61381;50.118;19.962;2023-09-30T17:07:15;21.35;;;9.27;;
73170;SDS011;61381;50.118;19.962;2023-09-30T17:12:16;23.52;;;9.43;;
73170;SDS011;61381;50.118;19.962;2023-09-30T17:17:19;21.33;;;9.35;;
73170;SDS011;61381;50.118;19.962;2023-09-30T17:22:19;24.17;;;10.43;;
73170;SDS011;61381;50.118;19.962;2023-09-30T17:27:20;26.83;;;9.40;;
73170;SDS011;61381;50.118;19.962;2023-09-30T17:32:22;29.05;;;10.63;;
73170;SDS011;61381;50.118;19.962;2023-09-30T18:04:47;46.77;;;16.70;;
73170;SDS011;61381;50.118;19.962;2023-09-30T18:09:48;29.27;;;11.95;;
73170;SDS011;61381;50.118;19.962;2023-09-30T18:14:49;26.33;;;10.55;;
73170;SDS011;61381;50.118;19.962;2023-09-30T18:19:51;29.02;;;11.13;;
73170;SDS011;61381;50.118;19.962;2023-09-30T18:24:52;28.55;;;10.82;;
73170;SDS011;61381;50.118;19.962;2023-09-30T18:29:53;31.10;;;12.50;;
73170;SDS011;61381;50.118;19.962;2023-09-30T18:34:56;28.80;;;12.27;;
73170;SDS011;61381;50.118;19.962;2023-09-30T18:39:56;32.22;;;12.95;;
73170;SDS011;61381;50.118;19.962;2023-09-30T18:44:57;31.50;;;12.30;;
73170;SDS011;61381;50.118;19.962;2023-09-30T18:49:59;24.15;;;11.05;;
73170;SDS011;61381;50.118;19.962;2023-09-30T18:55:00;32.33;;;14.15;;
73170;SDS011;61381;50.118;19.962;2023-09-30T19:00:01;29.02;;;13.07;;
73170;SDS011;61381;50.118;19.962;2023-09-30T19:05:04;32.22;;;13.13;;
73170;SDS011;61381;50.118;19.962;2023-09-30T19:10:06;33.50;;;12.50;;
73170;SDS011;61381;50.118;19.962;2023-09-30T19:15:07;29.80;;;12.98;;
73170;SDS011;61381;50.118;19.962;2023-09-30T19:20:11;32.97;;;12.32;;
73170;SDS011;61381;50.118;19.962;2023-09-30T19:25:13;28.42;;;11.80;;
73170;SDS011;61381;50.118;19.962;2023-09-30T19:30:14;31.80;;;13.20;;
73170;SDS011;61381;50.118;19.962;2023-09-30T19:35:16;24.75;;;10.65;;
73170;SDS011;61381;50.118;19.962;2023-09-30T19:40:17;29.45;;;12.15;;
73170;SDS011;61381;50.118;19.962;2023-09-30T19:45:18;31.15;;;13.77;;
73170;SDS011;61381;50.118;19.962;2023-09-30T19:50:20;30.55;;;12.40;;
73170;SDS011;61381;50.118;19.962;2023-09-30T19:55:21;23.13;;;10.88;;
73170;SDS011;61381;50.118;19.962;2023-09-30T20:00:22;35.13;;;13.98;;
73170;SDS011;61381;50.118;19.962;2023-09-30T20:05:24;36.35;;;12.57;;
73170;SDS011;61381;50.118;19.962;2023-09-30T20:10:25;27.00;;;11.60;;
73170;SDS011;61381;50.118;19.962;2023-09-30T20:15:26;24.42;;;10.48;;
73170;SDS011;61381;50.118;19.962;2023-09-30T20:20:28;26.42;;;9.32;;
73170;SDS011;61381;50.118;19.962;2023-09-30T20:25:29;21.00;;;9.65;;
73170;SDS011;61381;50.118;19.962;2023-09-30T20:30:30;23.13;;;9.07;;
73170;SDS011;61381;50.118;19.962;2023-09-30T20:35:32;27.98;;;11.70;;
73170;SDS011;61381;50.118;19.962;2023-09-30T20:40:33;22.27;;;9.38;;
73170;SDS011;61381;50.118;19.962;2023-09-30T20:45:34;20.45;;;9.38;;
73170;SDS011;61381;50.118;19.962;2023-09-30T20:50:36;20.88;;;9.00;;
73170;SDS011;61381;50.118;19.962;2023-09-30T20:55:37;21.20;;;9.27;;
73170;SDS011;61381;50.118;19.962;2023-09-30T21:00:38;18.92;;;8.73;;
73170;SDS011;61381;50.118;19.962;2023-09-30T21:05:40;23.15;;;10.52;;
73170;SDS011;61381;50.118;19.962;2023-09-30T21:10:41;18.13;;;9.50;;
73170;SDS011;61381;50.118;19.962;2023-09-30T21:15:42;19.33;;;9.02;;
73170;SDS011;61381;50.118;19.962;2023-09-30T21:20:44;19.00;;;8.68;;
73170;SDS011;61381;50.118;19.962;2023-09-30T21:25:45;18.98;;;8.73;;
73170;SDS011;61381;50.118;19.962;2023-09-30T21:30:46;19.17;;;7.70;;
73170;SDS011;61381;50.118;19.962;2023-09-30T21:35:54;17.88;;;8.50;;
73170;SDS011;61381;50.118;19.962;2023-09-30T21:40:56;23.17;;;9.18;;
73170;SDS011;61381;50.118;19.962;2023-09-30T21:45:57;19.73;;;8.27;;
73170;SDS011;61381;50.118;19.962;2023-09-30T21:50:59;20.70;;;8.70;;
73170;SDS011;61381;50.118;19.962;2023-09-30T21:56:00;24.90;;;9.73;;
73170;SDS011;61381;50.118;19.962;2023-09-30T22:01:01;18.45;;;8.57;;
73170;SDS011;61381;50.118;19.962;2023-09-30T22:06:03;19.00;;;7.82;;
73170;SDS011;61381;50.118;19.962;2023-09-30T22:11:04;22.42;;;8.13;;
73170;SDS011;61381;50.118;19.962;2023-09-30T22:16:05;17.27;;;6.68;;
73170;SDS011;61381;50.118;19.962;2023-09-30T22:21:07;16.00;;;6.93;;
73170;SDS011;61381;50.118;19.962;2023-09-30T22:26:08;16.10;;;6.85;;
73170;SDS011;61381;50.118;19.962;2023-09-30T22:31:09;11.85;;;6.70;;
73170;SDS011;61381;50.118;19.962;2023-09-30T22:36:11;13.90;;;6.72;;
73170;SDS011;61381;50.118;19.962;2023-09-30T22:41:12;19.77;;;6.72;;
73170;SDS011;61381;50.118;19.962;2023-09-30T22:46:13;13.90;;;5.60;;
73170;SDS011;61381;50.118;19.962;2023-09-30T22:51:15;14.43;;;6.00;;
73170;SDS011;61381;50.118;19.962;2023-09-30T22:56:16;13.45;;;5.40;;
73170;SDS011;61381;50.118;19.962;2023-09-30T23:01:21;13.48;;;5.47;;
73170;SDS011;61381;50.118;19.962;2023-09-30T23:06:23;11.30;;;5.10;;
73170;SDS011;61381;50.118;19.962;2023-09-30T23:11:24;9.10;;;4.70;;
73170;SDS011;61381;50.118;19.962;2023-09-30T23:16:25;10.65;;;4.60;;
73170;SDS011;61381;50.118;19.962;2023-09-30T23:21:27;10.48;;;4.78;;
73170;SDS011;61381;50.118;19.962;2023-09-30T23:26:28;8.90;;;4.40;;
73170;SDS011;61381;50.118;19.962;2023-09-30T23:31:29;12.63;;;5.10;;
73170;SDS011;61381;50.118;19.962;2023-09-30T23:36:31;10.00;;;4.55;;
73170;SDS011;61381;50.118;19.962;2023-09-30T23:41:32;11.25;;;5.45;;
73170;SDS011;61381;50.118;19.962;2023-09-30T23:46:33;16.10;;;5.25;;
73170;SDS011;61381;50.118;19.962;2023-09-30T23:51:35;13.00;;;5.18;;
73170;SDS011;61381;50.118;19.962;2023-09-30T23:56:36;13.50;;;5.43;;
